sensor_id;sensor_type;location;lat;lon;timestamp;P1;P2;P0
28647;PMS5003;17137;51.494;-0.262;2023-11-21T00:00:29;5;2;
28647;PMS5003;17137;51.494;-0.262;2023-11-21T00:00:59;5;3;
28647;PMS5003;17137;51.494;-0.262;2023-11-21T00:01:29;5;3;
28647;PMS5003;17137;51.494;-0.262;2023-11-21T00:01:59;5;3;
28647;PMS5003;17137;51.494;-0.262;2023-11-21T00:02:30;5;3;
28647;PMS5003;17137;51.494;-0.262;2023-11-21T00:03:00;5;3;
28647;PMS5003;17137;51.494;-0.262;2023-11-21T00:03:30;5;3;
28647;PMS5003;17137;51.494;-0.262;2023-11-21T00:04:01;5;3;
28647;PMS5003;17137;51.494;-0.262;2023-11-21T00:04:31;5;3;
28647;PMS5003;17137;51.494;-0.262;2023-11-21T00:05:02;5;3;
28647;PMS5003;17137;51.494;-0.262;2023-11-21T00:05:32;5;3;
28647;PMS5003;17137;51.494;-0.262;2023-11-21T00:06:03;5;3;
28647;PMS5003;17137;51.494;-0.262;2023-11-21T00:06:34;5;3;
28647;PMS5003;17137;51.494;-0.262;2023-11-21T00:07:04;3;2;
28647;PMS5003;17137;51.494;-0.262;2023-11-21T00:07:34;5;2;
28647;PMS5003;17137;51.494;-0.262;2023-11-21T00:08:05;5;2;
28647;PMS5003;17137;51.494;-0.262;2023-11-21T00:08:35;5;2;
28647;PMS5003;17137;51.494;-0.262;2023-11-21T00:09:06;5;2;
28647;PMS5003;17137;51.494;-0.262;2023-11-21T00:09:36;5;2;
28647;PMS5003;17137;51.494;-0.262;2023-11-21T00:10:07;5;2;
28647;PMS5003;17137;51.494;-0.262;2023-11-21T00:10:38;4;1;
28647;PMS5003;17137;51.494;-0.262;2023-11-21T00:11:08;4;1;
28647;PMS5003;17137;51.494;-0.262;2023-11-21T00:11:38;4;1;
28647;PMS5003;17137;51.494;-0.262;2023-11-21T00:12:09;4;1;
28647;PMS5003;17137;51.494;-0.262;2023-11-21T00:12:39;4;1;
28647;PMS5003;17137;51.494;-0.262;2023-11-21T00:13:10;4;1;
28647;PMS5003;17137;51.494;-0.262;2023-11-21T00:13:40;7;1;
28647;PMS5003;17137;51.494;-0.262;2023-11-21T00:14:10;7;1;
28647;PMS5003;17137;51.494;-0.262;2023-11-21T00:14:41;7;1;
28647;PMS5003;17137;51.494;-0.262;2023-11-21T00:15:11;8;2;
28647;PMS5003;17137;51.494;-0.262;2023-11-21T00:15:42;2;2;
28647;PMS5003;17137;51.494;-0.262;2023-11-21T00:16:12;2;2;
28647;PMS5003;17137;51.494;-0.262;2023-11-21T00:16:42;2;2;
28647;PMS5003;17137;51.494;-0.262;2023-11-21T00:17:13;2;2;
28647;PMS5003;17137;51.494;-0.262;2023-11-21T00:17:43;2;2;
28647;PMS5003;17137;51.494;-0.262;2023-11-21T00:18:13;2;2;
28647;PMS5003;17137;51.494;-0.262;2023-11-21T00:18:44;2;2;
28647;PMS5003;17137;51.494;-0.262;2023-11-21T00:19:14;2;2;
28647;PMS5003;17137;51.494;-0.262;2023-11-21T00:19:45;2;2;
28647;PMS5003;17137;51.494;-0.262;2023-11-21T00:20:15;2;2;
28647;PMS5003;17137;51.494;-0.262;2023-11-21T00:20:46;2;2;
28647;PMS5003;17137;51.494;-0.262;2023-11-21T00:21:16;1;1;
28647;PMS5003;17137;51.494;-0.262;2023-11-21T00:21:46;1;1;
28647;PMS5003;17137;51.494;-0.262;2023-11-21T00:22:17;1;1;
28647;PMS5003;17137;51.494;-0.262;2023-11-21T00:22:47;3;1;
28647;PMS5003;17137;51.494;-0.262;2023-11-21T00:23:18;3;1;
28647;PMS5003;17137;51.494;-0.262;2023-11-21T00:23:49;7;2;
28647;PMS5003;17137;51.494;-0.262;2023-11-21T00:24:19;7;2;
28647;PMS5003;17137;51.494;-0.262;2023-11-21T00:24:49;7;2;
28647;PMS5003;17137;51.494;-0.262;2023-11-21T00:25:20;8;2;
28647;PMS5003;17137;51.494;-0.262;2023-11-21T00:25:50;8;2;
28647;PMS5003;17137;51.494;-0.262;2023-11-21T00:26:20;8;2;
28647;PMS5003;17137;51.494;-0.262;2023-11-21T00:26:51;7;2;
28647;PMS5003;17137;51.494;-0.262;2023-11-21T00:27:21;7;2;
28647;PMS5003;17137;51.494;-0.262;2023-11-21T00:27:51;7;2;
28647;PMS5003;17137;51.494;-0.262;2023-11-21T00:28:22;7;2;
28647;PMS5003;17137;51.494;-0.262;2023-11-21T00:28:52;7;2;
28647;PMS5003;17137;51.494;-0.262;2023-11-21T00:29:22;7;2;
28647;PMS5003;17137;51.494;-0.262;2023-11-21T00:29:53;5;2;
28647;PMS5003;17137;51.494;-0.262;2023-11-21T00:30:23;5;2;
28647;PMS5003;17137;51.494;-0.262;2023-11-21T00:30:53;5;2;
28647;PMS5003;17137;51.494;-0.262;2023-11-21T00:31:23;3;1;
28647;PMS5003;17137;51.494;-0.262;2023-11-21T00:31:54;6;2;
28647;PMS5003;17137;51.494;-0.262;2023-11-21T00:32:24;6;2;
28647;PMS5003;17137;51.494;-0.262;2023-11-21T00:32:55;6;2;
28647;PMS5003;17137;51.494;-0.262;2023-11-21T00:33:25;5;2;
28647;PMS5003;17137;51.494;-0.262;2023-11-21T00:33:55;5;2;
28647;PMS5003;17137;51.494;-0.262;2023-11-21T00:34:25;5;2;
28647;PMS5003;17137;51.494;-0.262;2023-11-21T00:34:56;2;2;
28647;PMS5003;17137;51.494;-0.262;2023-11-21T00:35:26;2;2;
28647;PMS5003;17137;51.494;-0.262;2023-11-21T00:35:56;2;2;
28647;PMS5003;17137;51.494;-0.262;2023-11-21T00:36:26;2;2;
28647;PMS5003;17137;51.494;-0.262;2023-11-21T00:36:57;2;2;
28647;PMS5003;17137;51.494;-0.262;2023-11-21T00:37:27;2;2;
28647;PMS5003;17137;51.494;-0.262;2023-11-21T00:37:57;2;1;
28647;PMS5003;17137;51.494;-0.262;2023-11-21T00:38:27;2;1;
28647;PMS5003;17137;51.494;-0.262;2023-11-21T00:39:03;2;1;
28647;PMS5003;17137;51.494;-0.262;2023-11-21T00:39:33;4;1;
28647;PMS5003;17137;51.494;-0.262;2023-11-21T00:40:09;5;2;
28647;PMS5003;17137;51.494;-0.262;2023-11-21T00:40:41;5;2;
28647;PMS5003;17137;51.494;-0.262;2023-11-21T00:41:11;4;2;
28647;PMS5003;17137;51.494;-0.262;2023-11-21T00:41:42;4;2;
28647;PMS5003;17137;51.494;-0.262;2023-11-21T00:42:12;4;2;
28647;PMS5003;17137;51.494;-0.262;2023-11-21T00:42:42;5;2;
28647;PMS5003;17137;51.494;-0.262;2023-11-21T00:43:13;5;2;
28647;PMS5003;17137;51.494;-0.262;2023-11-21T00:43:43;5;2;
28647;PMS5003;17137;51.494;-0.262;2023-11-21T00:44:13;3;2;
28647;PMS5003;17137;51.494;-0.262;2023-11-21T00:44:43;3;2;
28647;PMS5003;17137;51.494;-0.262;2023-11-21T00:45:14;3;2;
28647;PMS5003;17137;51.494;-0.262;2023-11-21T00:45:44;4;2;
28647;PMS5003;17137;51.494;-0.262;2023-11-21T00:46:14;4;2;
28647;PMS5003;17137;51.494;-0.262;2023-11-21T00:46:45;4;2;
28647;PMS5003;17137;51.494;-0.262;2023-11-21T00:47:15;2;2;
28647;PMS5003;17137;51.494;-0.262;2023-11-21T00:47:45;2;2;
28647;PMS5003;17137;51.494;-0.262;2023-11-21T00:48:15;4;3;
28647;PMS5003;17137;51.494;-0.262;2023-11-21T00:48:46;5;3;
28647;PMS5003;17137;51.494;-0.262;2023-11-21T00:49:16;5;3;
28647;PMS5003;17137;51.494;-0.262;2023-11-21T00:49:47;5;3;
28647;PMS5003;17137;51.494;-0.262;2023-11-21T00:50:17;6;2;
28647;PMS5003;17137;51.494;-0.262;2023-11-21T00:50:47;6;2;
28647;PMS5003;17137;51.494;-0.262;2023-11-21T00:51:18;6;2;
28647;PMS5003;17137;51.494;-0.262;2023-11-21T00:51:48;6;2;
28647;PMS5003;17137;51.494;-0.262;2023-11-21T00:52:19;6;2;
28647;PMS5003;17137;51.494;-0.262;2023-11-21T00:52:49;6;2;
28647;PMS5003;17137;51.494;-0.262;2023-11-21T00:53:19;5;1;
28647;PMS5003;17137;51.494;-0.262;2023-11-21T00:53:50;5;1;
28647;PMS5003;17137;51.494;-0.262;2023-11-21T00:54:20;5;1;
28647;PMS5003;17137;51.494;-0.262;2023-11-21T00:54:50;5;3;
28647;PMS5003;17137;51.494;-0.262;2023-11-21T00:55:20;5;3;
28647;PMS5003;17137;51.494;-0.262;2023-11-21T00:55:51;5;3;
28647;PMS5003;17137;51.494;-0.262;2023-11-21T00:56:21;4;1;
28647;PMS5003;17137;51.494;-0.262;2023-11-21T00:56:52;4;1;
28647;PMS5003;17137;51.494;-0.262;2023-11-21T00:57:22;5;1;
28647;PMS5003;17137;51.494;-0.262;2023-11-21T00:57:53;5;1;
28647;PMS5003;17137;51.494;-0.262;2023-11-21T00:58:23;5;1;
28647;PMS5003;17137;51.494;-0.262;2023-11-21T00:58:54;5;1;
28647;PMS5003;17137;51.494;-0.262;2023-11-21T00:59:24;5;1;
28647;PMS5003;17137;51.494;-0.262;2023-11-21T00:59:55;5;1;
28647;PMS5003;17137;51.494;-0.262;2023-11-21T01:00:25;4;1;
28647;PMS5003;17137;51.494;-0.262;2023-11-21T01:00:56;4;1;
28647;PMS5003;17137;51.494;-0.262;2023-11-21T01:01:26;4;1;
28647;PMS5003;17137;51.494;-0.262;2023-11-21T01:01:56;3;1;
28647;PMS5003;17137;51.494;-0.262;2023-11-21T01:02:26;3;1;
28647;PMS5003;17137;51.494;-0.262;2023-11-21T01:02:57;3;1;
28647;PMS5003;17137;51.494;-0.262;2023-11-21T01:03:27;4;1;
28647;PMS5003;17137;51.494;-0.262;2023-11-21T01:03:57;4;1;
28647;PMS5003;17137;51.494;-0.262;2023-11-21T01:04:27;3;3;
28647;PMS5003;17137;51.494;-0.262;2023-11-21T01:04:58;3;3;
28647;PMS5003;17137;51.494;-0.262;2023-11-21T01:05:28;2;2;
28647;PMS5003;17137;51.494;-0.262;2023-11-21T01:05:58;2;2;
28647;PMS5003;17137;51.494;-0.262;2023-11-21T01:06:28;2;2;
28647;PMS5003;17137;51.494;-0.262;2023-11-21T01:06:59;2;2;
28647;PMS5003;17137;51.494;-0.262;2023-11-21T01:07:29;2;2;
28647;PMS5003;17137;51.494;-0.262;2023-11-21T01:07:59;2;2;
28647;PMS5003;17137;51.494;-0.262;2023-11-21T01:08:29;2;2;
28647;PMS5003;17137;51.494;-0.262;2023-11-21T01:09:00;2;2;
28647;PMS5003;17137;51.494;-0.262;2023-11-21T01:09:30;2;2;
28647;PMS5003;17137;51.494;-0.262;2023-11-21T01:10:00;2;2;
28647;PMS5003;17137;51.494;-0.262;2023-11-21T01:10:31;2;2;
28647;PMS5003;17137;51.494;-0.262;2023-11-21T01:11:01;2;2;
28647;PMS5003;17137;51.494;-0.262;2023-11-21T01:11:32;2;2;
28647;PMS5003;17137;51.494;-0.262;2023-11-21T01:12:31;6;2;
28647;PMS5003;17137;51.494;-0.262;2023-11-21T01:13:01;6;1;
28647;PMS5003;17137;51.494;-0.262;2023-11-21T01:13:32;6;1;
28647;PMS5003;17137;51.494;-0.262;2023-11-21T01:14:03;6;1;
28647;PMS5003;17137;51.494;-0.262;2023-11-21T01:14:34;6;1;
28647;PMS5003;17137;51.494;-0.262;2023-11-21T01:15:05;6;1;
28647;PMS5003;17137;51.494;-0.262;2023-11-21T01:15:36;6;1;
28647;PMS5003;17137;51.494;-0.262;2023-11-21T01:16:07;6;1;
28647;PMS5003;17137;51.494;-0.262;2023-11-21T01:16:37;6;1;
28647;PMS5003;17137;51.494;-0.262;2023-11-21T01:17:08;6;1;
28647;PMS5003;17137;51.494;-0.262;2023-11-21T01:17:38;6;2;
28647;PMS5003;17137;51.494;-0.262;2023-11-21T01:18:08;6;2;
28647;PMS5003;17137;51.494;-0.262;2023-11-21T01:18:38;6;2;
28647;PMS5003;17137;51.494;-0.262;2023-11-21T01:19:09;7;2;
28647;PMS5003;17137;51.494;-0.262;2023-11-21T01:19:39;7;2;
28647;PMS5003;17137;51.494;-0.262;2023-11-21T01:20:10;3;2;
28647;PMS5003;17137;51.494;-0.262;2023-11-21T01:20:41;3;2;
28647;PMS5003;17137;51.494;-0.262;2023-11-21T01:21:11;1;1;
28647;PMS5003;17137;51.494;-0.262;2023-11-21T01:21:41;1;1;
28647;PMS5003;17137;51.494;-0.262;2023-11-21T01:22:11;1;1;
28647;PMS5003;17137;51.494;-0.262;2023-11-21T01:22:42;2;2;
28647;PMS5003;17137;51.494;-0.262;2023-11-21T01:23:12;2;2;
28647;PMS5003;17137;51.494;-0.262;2023-11-21T01:23:42;2;2;
28647;PMS5003;17137;51.494;-0.262;2023-11-21T01:24:12;2;2;
28647;PMS5003;17137;51.494;-0.262;2023-11-21T01:24:43;2;2;
28647;PMS5003;17137;51.494;-0.262;2023-11-21T01:25:13;2;2;
28647;PMS5003;17137;51.494;-0.262;2023-11-21T01:25:49;2;2;
28647;PMS5003;17137;51.494;-0.262;2023-11-21T01:26:19;2;2;
28647;PMS5003;17137;51.494;-0.262;2023-11-21T01:26:49;2;2;
28647;PMS5003;17137;51.494;-0.262;2023-11-21T01:27:20;2;2;
28647;PMS5003;17137;51.494;-0.262;2023-11-21T01:27:50;2;2;
28647;PMS5003;17137;51.494;-0.262;2023-11-21T01:28:20;6;1;
28647;PMS5003;17137;51.494;-0.262;2023-11-21T01:28:56;6;1;
28647;PMS5003;17137;51.494;-0.262;2023-11-21T01:29:26;6;1;
28647;PMS5003;17137;51.494;-0.262;2023-11-21T01:29:56;6;1;
28647;PMS5003;17137;51.494;-0.262;2023-11-21T01:30:27;6;1;
28647;PMS5003;17137;51.494;-0.262;2023-11-21T01:30:57;5;1;
28647;PMS5003;17137;51.494;-0.262;2023-11-21T01:31:28;5;1;
28647;PMS5003;17137;51.494;-0.262;2023-11-21T01:31:58;5;1;
28647;PMS5003;17137;51.494;-0.262;2023-11-21T01:32:28;5;1;
28647;PMS5003;17137;51.494;-0.262;2023-11-21T01:32:59;5;1;
28647;PMS5003;17137;51.494;-0.262;2023-11-21T01:33:29;5;1;
28647;PMS5003;17137;51.494;-0.262;2023-11-21T01:33:59;5;0;
28647;PMS5003;17137;51.494;-0.262;2023-11-21T01:34:30;5;0;
28647;PMS5003;17137;51.494;-0.262;2023-11-21T01:35:00;5;0;
28647;PMS5003;17137;51.494;-0.262;2023-11-21T01:35:30;5;0;
28647;PMS5003;17137;51.494;-0.262;2023-11-21T01:36:00;5;0;
28647;PMS5003;17137;51.494;-0.262;2023-11-21T01:36:31;6;4;
28647;PMS5003;17137;51.494;-0.262;2023-11-21T01:37:02;6;4;
28647;PMS5003;17137;51.494;-0.262;2023-11-21T01:37:33;6;4;
28647;PMS5003;17137;51.494;-0.262;2023-11-21T01:38:08;5;3;
28647;PMS5003;17137;51.494;-0.262;2023-11-21T01:38:39;5;3;
28647;PMS5003;17137;51.494;-0.262;2023-11-21T01:39:09;5;3;
28647;PMS5003;17137;51.494;-0.262;2023-11-21T01:39:40;5;3;
28647;PMS5003;17137;51.494;-0.262;2023-11-21T01:40:10;5;3;
28647;PMS5003;17137;51.494;-0.262;2023-11-21T01:40:40;5;3;
28647;PMS5003;17137;51.494;-0.262;2023-11-21T01:41:11;5;3;
28647;PMS5003;17137;51.494;-0.262;2023-11-21T01:41:41;5;3;
28647;PMS5003;17137;51.494;-0.262;2023-11-21T01:42:11;5;3;
28647;PMS5003;17137;51.494;-0.262;2023-11-21T01:42:41;5;2;
28647;PMS5003;17137;51.494;-0.262;2023-11-21T01:43:12;5;2;
28647;PMS5003;17137;51.494;-0.262;2023-11-21T01:43:42;5;2;
28647;PMS5003;17137;51.494;-0.262;2023-11-21T01:44:13;4;2;
28647;PMS5003;17137;51.494;-0.262;2023-11-21T01:44:43;3;3;
28647;PMS5003;17137;51.494;-0.262;2023-11-21T01:45:13;3;3;
28647;PMS5003;17137;51.494;-0.262;2023-11-21T01:45:44;3;3;
28647;PMS5003;17137;51.494;-0.262;2023-11-21T01:46:14;3;3;
28647;PMS5003;17137;51.494;-0.262;2023-11-21T01:46:45;3;3;
28647;PMS5003;17137;51.494;-0.262;2023-11-21T01:47:15;3;3;
28647;PMS5003;17137;51.494;-0.262;2023-11-21T01:47:46;4;2;
28647;PMS5003;17137;51.494;-0.262;2023-11-21T01:48:16;4;2;
28647;PMS5003;17137;51.494;-0.262;2023-11-21T01:48:48;4;2;
28647;PMS5003;17137;51.494;-0.262;2023-11-21T01:49:19;4;2;
28647;PMS5003;17137;51.494;-0.262;2023-11-21T01:49:49;4;2;
28647;PMS5003;17137;51.494;-0.262;2023-11-21T01:50:19;4;2;
28647;PMS5003;17137;51.494;-0.262;2023-11-21T01:50:50;4;2;
28647;PMS5003;17137;51.494;-0.262;2023-11-21T01:51:21;4;2;
28647;PMS5003;17137;51.494;-0.262;2023-11-21T01:51:51;4;2;
28647;PMS5003;17137;51.494;-0.262;2023-11-21T01:52:22;5;2;
28647;PMS5003;17137;51.494;-0.262;2023-11-21T01:52:53;0;0;
28647;PMS5003;17137;51.494;-0.262;2023-11-21T01:53:23;0;0;
28647;PMS5003;17137;51.494;-0.262;2023-11-21T01:53:55;0;0;
28647;PMS5003;17137;51.494;-0.262;2023-11-21T01:54:25;0;0;
28647;PMS5003;17137;51.494;-0.262;2023-11-21T01:54:56;0;0;
28647;PMS5003;17137;51.494;-0.262;2023-11-21T01:55:27;0;0;
28647;PMS5003;17137;51.494;-0.262;2023-11-21T01:55:58;0;0;
28647;PMS5003;17137;51.494;-0.262;2023-11-21T01:56:28;0;0;
28647;PMS5003;17137;51.494;-0.262;2023-11-21T01:56:58;0;0;
28647;PMS5003;17137;51.494;-0.262;2023-11-21T01:57:29;1;1;
28647;PMS5003;17137;51.494;-0.262;2023-11-21T01:58:00;1;1;
28647;PMS5003;17137;51.494;-0.262;2023-11-21T01:58:30;1;1;
28647;PMS5003;17137;51.494;-0.262;2023-11-21T01:59:01;1;1;
28647;PMS5003;17137;51.494;-0.262;2023-11-21T01:59:34;1;1;
28647;PMS5003;17137;51.494;-0.262;2023-11-21T02:00:05;1;1;
28647;PMS5003;17137;51.494;-0.262;2023-11-21T02:01:07;2;2;
28647;PMS5003;17137;51.494;-0.262;2023-11-21T02:01:37;3;3;
28647;PMS5003;17137;51.494;-0.262;2023-11-21T02:02:07;3;3;
28647;PMS5003;17137;51.494;-0.262;2023-11-21T02:02:37;3;3;
28647;PMS5003;17137;51.494;-0.262;2023-11-21T02:03:08;4;3;
28647;PMS5003;17137;51.494;-0.262;2023-11-21T02:03:38;4;3;
28647;PMS5003;17137;51.494;-0.262;2023-11-21T02:04:09;4;3;
28647;PMS5003;17137;51.494;-0.262;2023-11-21T02:04:39;3;3;
28647;PMS5003;17137;51.494;-0.262;2023-11-21T02:05:09;3;3;
28647;PMS5003;17137;51.494;-0.262;2023-11-21T02:05:40;3;3;
28647;PMS5003;17137;51.494;-0.262;2023-11-21T02:06:10;4;3;
28647;PMS5003;17137;51.494;-0.262;2023-11-21T02:06:41;4;3;
28647;PMS5003;17137;51.494;-0.262;2023-11-21T02:07:11;4;3;
28647;PMS5003;17137;51.494;-0.262;2023-11-21T02:07:42;3;3;
28647;PMS5003;17137;51.494;-0.262;2023-11-21T02:08:12;3;3;
28647;PMS5003;17137;51.494;-0.262;2023-11-21T02:08:43;5;3;
28647;PMS5003;17137;51.494;-0.262;2023-11-21T02:09:13;5;3;
28647;PMS5003;17137;51.494;-0.262;2023-11-21T02:09:43;5;3;
28647;PMS5003;17137;51.494;-0.262;2023-11-21T02:10:14;5;3;
28647;PMS5003;17137;51.494;-0.262;2023-11-21T02:10:44;5;3;
28647;PMS5003;17137;51.494;-0.262;2023-11-21T02:11:15;4;3;
28647;PMS5003;17137;51.494;-0.262;2023-11-21T02:11:50;4;3;
28647;PMS5003;17137;51.494;-0.262;2023-11-21T02:12:20;4;3;
28647;PMS5003;17137;51.494;-0.262;2023-11-21T02:12:51;4;3;
28647;PMS5003;17137;51.494;-0.262;2023-11-21T02:13:21;4;3;
28647;PMS5003;17137;51.494;-0.262;2023-11-21T02:13:51;4;3;
28647;PMS5003;17137;51.494;-0.262;2023-11-21T02:14:22;4;3;
28647;PMS5003;17137;51.494;-0.262;2023-11-21T02:14:52;4;3;
28647;PMS5003;17137;51.494;-0.262;2023-11-21T02:15:22;4;3;
28647;PMS5003;17137;51.494;-0.262;2023-11-21T02:15:52;4;2;
28647;PMS5003;17137;51.494;-0.262;2023-11-21T02:16:23;4;2;
28647;PMS5003;17137;51.494;-0.262;2023-11-21T02:16:53;8;1;
28647;PMS5003;17137;51.494;-0.262;2023-11-21T02:17:24;6;1;
28647;PMS5003;17137;51.494;-0.262;2023-11-21T02:17:54;6;1;
28647;PMS5003;17137;51.494;-0.262;2023-11-21T02:18:25;6;1;
28647;PMS5003;17137;51.494;-0.262;2023-11-21T02:18:55;6;1;
28647;PMS5003;17137;51.494;-0.262;2023-11-21T02:19:26;6;1;
28647;PMS5003;17137;51.494;-0.262;2023-11-21T02:19:57;6;1;
28647;PMS5003;17137;51.494;-0.262;2023-11-21T02:20:27;8;1;
28647;PMS5003;17137;51.494;-0.262;2023-11-21T02:20:57;8;1;
28647;PMS5003;17137;51.494;-0.262;2023-11-21T02:21:28;8;1;
28647;PMS5003;17137;51.494;-0.262;2023-11-21T02:21:59;7;1;
28647;PMS5003;17137;51.494;-0.262;2023-11-21T02:22:30;7;1;
28647;PMS5003;17137;51.494;-0.262;2023-11-21T02:23:03;7;1;
28647;PMS5003;17137;51.494;-0.262;2023-11-21T02:23:33;9;1;
28647;PMS5003;17137;51.494;-0.262;2023-11-21T02:24:08;9;1;
28647;PMS5003;17137;51.494;-0.262;2023-11-21T02:24:40;9;1;
28647;PMS5003;17137;51.494;-0.262;2023-11-21T02:25:11;2;2;
28647;PMS5003;17137;51.494;-0.262;2023-11-21T02:25:41;2;2;
28647;PMS5003;17137;51.494;-0.262;2023-11-21T02:26:12;2;2;
28647;PMS5003;17137;51.494;-0.262;2023-11-21T02:26:42;2;2;
28647;PMS5003;17137;51.494;-0.262;2023-11-21T02:27:12;2;2;
28647;PMS5003;17137;51.494;-0.262;2023-11-21T02:27:43;2;2;
28647;PMS5003;17137;51.494;-0.262;2023-11-21T02:28:13;2;2;
28647;PMS5003;17137;51.494;-0.262;2023-11-21T02:28:44;2;2;
28647;PMS5003;17137;51.494;-0.262;2023-11-21T02:29:14;2;2;
28647;PMS5003;17137;51.494;-0.262;2023-11-21T02:29:44;2;2;
28647;PMS5003;17137;51.494;-0.262;2023-11-21T02:30:15;2;2;
28647;PMS5003;17137;51.494;-0.262;2023-11-21T02:30:45;2;2;
28647;PMS5003;17137;51.494;-0.262;2023-11-21T02:31:15;2;2;
28647;PMS5003;17137;51.494;-0.262;2023-11-21T02:31:46;2;2;
28647;PMS5003;17137;51.494;-0.262;2023-11-21T02:32:16;2;2;
28647;PMS5003;17137;51.494;-0.262;2023-11-21T02:32:46;2;2;
28647;PMS5003;17137;51.494;-0.262;2023-11-21T02:33:17;1;1;
28647;PMS5003;17137;51.494;-0.262;2023-11-21T02:33:47;1;1;
28647;PMS5003;17137;51.494;-0.262;2023-11-21T02:34:18;1;1;
28647;PMS5003;17137;51.494;-0.262;2023-11-21T02:34:48;1;1;
28647;PMS5003;17137;51.494;-0.262;2023-11-21T02:35:19;1;1;
28647;PMS5003;17137;51.494;-0.262;2023-11-21T02:35:49;1;1;
28647;PMS5003;17137;51.494;-0.262;2023-11-21T02:36:20;1;1;
28647;PMS5003;17137;51.494;-0.262;2023-11-21T02:36:50;1;1;
28647;PMS5003;17137;51.494;-0.262;2023-11-21T02:37:20;1;1;
28647;PMS5003;17137;51.494;-0.262;2023-11-21T02:37:51;1;1;
28647;PMS5003;17137;51.494;-0.262;2023-11-21T02:38:21;1;1;
28647;PMS5003;17137;51.494;-0.262;2023-11-21T02:38:52;1;1;
28647;PMS5003;17137;51.494;-0.262;2023-11-21T02:39:22;1;1;
28647;PMS5003;17137;51.494;-0.262;2023-11-21T02:39:52;1;1;
28647;PMS5003;17137;51.494;-0.262;2023-11-21T02:40:22;1;1;
28647;PMS5003;17137;51.494;-0.262;2023-11-21T02:40:53;1;1;
28647;PMS5003;17137;51.494;-0.262;2023-11-21T02:41:23;1;1;
28647;PMS5003;17137;51.494;-0.262;2023-11-21T02:41:53;0;0;
28647;PMS5003;17137;51.494;-0.262;2023-11-21T02:42:24;0;0;
28647;PMS5003;17137;51.494;-0.262;2023-11-21T02:42:54;0;0;
28647;PMS5003;17137;51.494;-0.262;2023-11-21T02:43:24;0;0;
28647;PMS5003;17137;51.494;-0.262;2023-11-21T02:43:55;0;0;
28647;PMS5003;17137;51.494;-0.262;2023-11-21T02:44:25;0;0;
28647;PMS5003;17137;51.494;-0.262;2023-11-21T02:44:55;0;0;
28647;PMS5003;17137;51.494;-0.262;2023-11-21T02:45:25;0;0;
28647;PMS5003;17137;51.494;-0.262;2023-11-21T02:45:56;0;0;
28647;PMS5003;17137;51.494;-0.262;2023-11-21T02:46:26;0;0;
28647;PMS5003;17137;51.494;-0.262;2023-11-21T02:46:56;0;0;
28647;PMS5003;17137;51.494;-0.262;2023-11-21T02:47:27;0;0;
28647;PMS5003;17137;51.494;-0.262;2023-11-21T02:47:57;0;0;
28647;PMS5003;17137;51.494;-0.262;2023-11-21T02:48:27;0;0;
28647;PMS5003;17137;51.494;-0.262;2023-11-21T02:48:58;0;0;
28647;PMS5003;17137;51.494;-0.262;2023-11-21T02:49:28;3;1;
28647;PMS5003;17137;51.494;-0.262;2023-11-21T02:49:58;3;1;
28647;PMS5003;17137;51.494;-0.262;2023-11-21T02:50:29;3;1;
28647;PMS5003;17137;51.494;-0.262;2023-11-21T02:50:59;3;1;
28647;PMS5003;17137;51.494;-0.262;2023-11-21T02:51:29;2;1;
28647;PMS5003;17137;51.494;-0.262;2023-11-21T02:52:00;2;1;
28647;PMS5003;17137;51.494;-0.262;2023-11-21T02:52:30;2;1;
28647;PMS5003;17137;51.494;-0.262;2023-11-21T02:53:00;2;1;
28647;PMS5003;17137;51.494;-0.262;2023-11-21T02:53:31;2;1;
28647;PMS5003;17137;51.494;-0.262;2023-11-21T02:54:01;2;1;
28647;PMS5003;17137;51.494;-0.262;2023-11-21T02:54:32;2;1;
28647;PMS5003;17137;51.494;-0.262;2023-11-21T02:55:02;2;1;
28647;PMS5003;17137;51.494;-0.262;2023-11-21T02:55:33;2;1;
28647;PMS5003;17137;51.494;-0.262;2023-11-21T02:56:03;2;1;
28647;PMS5003;17137;51.494;-0.262;2023-11-21T02:56:34;2;1;
28647;PMS5003;17137;51.494;-0.262;2023-11-21T02:57:05;2;1;
28647;PMS5003;17137;51.494;-0.262;2023-11-21T02:57:35;4;1;
28647;PMS5003;17137;51.494;-0.262;2023-11-21T02:58:05;4;1;
28647;PMS5003;17137;51.494;-0.262;2023-11-21T02:58:35;5;1;
28647;PMS5003;17137;51.494;-0.262;2023-11-21T02:59:06;5;1;
28647;PMS5003;17137;51.494;-0.262;2023-11-21T02:59:36;5;1;
28647;PMS5003;17137;51.494;-0.262;2023-11-21T03:00:07;4;1;
28647;PMS5003;17137;51.494;-0.262;2023-11-21T03:00:38;4;1;
28647;PMS5003;17137;51.494;-0.262;2023-11-21T03:01:08;4;1;
28647;PMS5003;17137;51.494;-0.262;2023-11-21T03:01:39;4;1;
28647;PMS5003;17137;51.494;-0.262;2023-11-21T03:02:09;4;1;
28647;PMS5003;17137;51.494;-0.262;2023-11-21T03:02:39;4;1;
28647;PMS5003;17137;51.494;-0.262;2023-11-21T03:03:10;4;1;
28647;PMS5003;17137;51.494;-0.262;2023-11-21T03:03:40;4;1;
28647;PMS5003;17137;51.494;-0.262;2023-11-21T03:04:10;4;1;
28647;PMS5003;17137;51.494;-0.262;2023-11-21T03:04:41;4;1;
28647;PMS5003;17137;51.494;-0.262;2023-11-21T03:05:11;4;1;
28647;PMS5003;17137;51.494;-0.262;2023-11-21T03:05:41;3;2;
28647;PMS5003;17137;51.494;-0.262;2023-11-21T03:06:11;3;2;
28647;PMS5003;17137;51.494;-0.262;2023-11-21T03:06:42;3;2;
28647;PMS5003;17137;51.494;-0.262;2023-11-21T03:07:12;3;2;
28647;PMS5003;17137;51.494;-0.262;2023-11-21T03:07:42;3;2;
28647;PMS5003;17137;51.494;-0.262;2023-11-21T03:08:13;3;2;
28647;PMS5003;17137;51.494;-0.262;2023-11-21T03:08:43;3;2;
28647;PMS5003;17137;51.494;-0.262;2023-11-21T03:09:13;2;1;
28647;PMS5003;17137;51.494;-0.262;2023-11-21T03:09:43;2;1;
28647;PMS5003;17137;51.494;-0.262;2023-11-21T03:10:14;2;1;
28647;PMS5003;17137;51.494;-0.262;2023-11-21T03:10:44;1;0;
28647;PMS5003;17137;51.494;-0.262;2023-11-21T03:11:15;1;0;
28647;PMS5003;17137;51.494;-0.262;2023-11-21T03:11:45;1;0;
28647;PMS5003;17137;51.494;-0.262;2023-11-21T03:12:15;1;0;
28647;PMS5003;17137;51.494;-0.262;2023-11-21T03:12:46;1;0;
28647;PMS5003;17137;51.494;-0.262;2023-11-21T03:13:16;1;0;
28647;PMS5003;17137;51.494;-0.262;2023-11-21T03:13:46;2;1;
28647;PMS5003;17137;51.494;-0.262;2023-11-21T03:14:16;2;1;
28647;PMS5003;17137;51.494;-0.262;2023-11-21T03:14:47;3;1;
28647;PMS5003;17137;51.494;-0.262;2023-11-21T03:15:17;3;1;
28647;PMS5003;17137;51.494;-0.262;2023-11-21T03:15:47;3;1;
28647;PMS5003;17137;51.494;-0.262;2023-11-21T03:16:18;2;1;
28647;PMS5003;17137;51.494;-0.262;2023-11-21T03:16:49;2;1;
28647;PMS5003;17137;51.494;-0.262;2023-11-21T03:17:19;2;1;
28647;PMS5003;17137;51.494;-0.262;2023-11-21T03:17:49;2;1;
28647;PMS5003;17137;51.494;-0.262;2023-11-21T03:18:25;2;1;
28647;PMS5003;17137;51.494;-0.262;2023-11-21T03:18:55;2;1;
28647;PMS5003;17137;51.494;-0.262;2023-11-21T03:19:25;2;1;
28647;PMS5003;17137;51.494;-0.262;2023-11-21T03:19:55;2;1;
28647;PMS5003;17137;51.494;-0.262;2023-11-21T03:20:26;2;1;
28647;PMS5003;17137;51.494;-0.262;2023-11-21T03:20:56;2;1;
28647;PMS5003;17137;51.494;-0.262;2023-11-21T03:21:26;2;1;
28647;PMS5003;17137;51.494;-0.262;2023-11-21T03:21:56;1;1;
28647;PMS5003;17137;51.494;-0.262;2023-11-21T03:22:27;1;1;
28647;PMS5003;17137;51.494;-0.262;2023-11-21T03:22:57;1;1;
28647;PMS5003;17137;51.494;-0.262;2023-11-21T03:23:27;1;1;
28647;PMS5003;17137;51.494;-0.262;2023-11-21T03:23:57;1;1;
28647;PMS5003;17137;51.494;-0.262;2023-11-21T03:24:28;1;1;
28647;PMS5003;17137;51.494;-0.262;2023-11-21T03:24:58;1;1;
28647;PMS5003;17137;51.494;-0.262;2023-11-21T03:25:28;1;1;
28647;PMS5003;17137;51.494;-0.262;2023-11-21T03:25:58;1;1;
28647;PMS5003;17137;51.494;-0.262;2023-11-21T03:26:29;1;1;
28647;PMS5003;17137;51.494;-0.262;2023-11-21T03:26:59;1;1;